Página principal
METAR-TAF:

METAR-TAF

Aeroportos :

Dakhla, Marrocos

latitude: 23-43-05N, longitude: 015-55-55W, altura: 11 m

Observação actual do tempo

O boletim foi feito há 17 minutos, às 07:00 UTC
Vento 14 kt de es-nordeste
Temperatura 14°C
Humidade 82%
Pressão 1018 hPa
Visibilidade: 8000 m

METAR: GMMH 180700Z 07014KT 8000 NSC 14/11 Q1018 NOSIG

Hora: 07:17 (07:17 UTC)

Previsão

O boletim foi feito há 2 horas e 17 minutos, às 05:00 UTC
Previsão válida de 18 às 06 UTC a 19 às 12 UTC
Vento 18 kt de nor-nordeste
Visibilidade: 8000 m

TAF: GMMH 180500Z 1806/1912 03018KT 8000 NSC

Observações e previsões do tempo de mais de 4000 aeroportos (mensagens METAR e TAF).

As estações disponíveis são os pontos amarelos e vermelhos sobre o mapa.

Mova o rato sobre o mapa para ver o nome da estação.

Depois clique no ponto para visualizar as observações e previsões meteorológicas.

Para alterar o mapa : clique nos botões verdes com uma cruz preta para aumentar o zoom; no botão verde com uma pitada de zoom; ou nas setas verdes para mapas adjacentes.


METAR-TAF: